createdAt,value
2018-12-11T00:00:28.572Z,4.51
2018-12-11T00:01:28.580Z,4.55
2018-12-11T00:02:28.572Z,4.51
2018-12-11T00:03:28.541Z,4.52
2018-12-11T00:04:28.543Z,4.55
2018-12-11T00:05:28.518Z,4.62
2018-12-11T00:06:28.509Z,4.65
2018-12-11T00:07:28.493Z,4.60
2018-12-11T00:08:28.478Z,4.55
2018-12-11T00:09:28.496Z,4.62
2018-12-11T00:10:28.494Z,4.59
2018-12-11T00:11:33.896Z,4.65
2018-12-11T00:12:29.456Z,4.60
2018-12-11T00:13:28.459Z,4.65
2018-12-11T00:14:28.448Z,4.62
2018-12-11T00:15:28.431Z,4.59
2018-12-11T00:16:28.402Z,4.60
2018-12-11T00:17:28.379Z,4.60
2018-12-11T00:18:28.400Z,4.55
2018-12-11T00:19:28.368Z,4.60
2018-12-11T00:20:28.372Z,4.59
2018-12-11T00:21:28.344Z,4.59
2018-12-11T00:22:28.352Z,4.55
2018-12-11T00:23:28.338Z,4.59
2018-12-11T00:24:28.332Z,4.58
2018-12-11T00:25:28.320Z,4.54
2018-12-11T00:26:28.291Z,4.58
2018-12-11T00:27:28.277Z,4.50
2018-12-11T00:28:28.272Z,4.45
2018-12-11T00:29:28.275Z,4.52
2018-12-11T00:30:28.242Z,4.50
2018-12-11T00:31:28.292Z,4.50
2018-12-11T00:32:28.247Z,4.41
2018-12-11T00:33:28.217Z,4.47
2018-12-11T00:34:28.238Z,4.42
2018-12-11T00:35:28.197Z,4.42
2018-12-11T00:36:28.176Z,4.40
2018-12-11T00:37:28.190Z,4.44
2018-12-11T00:38:28.218Z,4.41
2018-12-11T00:39:28.152Z,4.47
2018-12-11T00:40:28.131Z,4.41
2018-12-11T00:41:28.129Z,4.44
2018-12-11T00:42:28.120Z,4.34
2018-12-11T00:43:28.128Z,4.44
2018-12-11T00:44:28.107Z,4.41
2018-12-11T00:45:28.089Z,4.42
2018-12-11T00:46:28.074Z,4.36
2018-12-11T00:47:28.083Z,4.36
2018-12-11T00:48:28.053Z,4.42
2018-12-11T00:49:28.094Z,4.48
2018-12-11T00:50:28.031Z,4.41
2018-12-11T00:51:28.025Z,4.44
2018-12-11T00:52:28.018Z,4.37
2018-12-11T00:53:27.998Z,4.40
2018-12-11T00:54:28.006Z,4.40
2018-12-11T00:55:27.977Z,4.34
2018-12-11T00:56:27.973Z,4.30
2018-12-11T00:57:27.974Z,4.36
2018-12-11T00:58:27.950Z,4.26
2018-12-11T00:59:27.947Z,4.34
2018-12-11T01:00:27.939Z,4.32
2018-12-11T01:01:27.926Z,4.30
2018-12-11T01:02:27.901Z,4.36
2018-12-11T01:03:27.897Z,4.33
2018-12-11T01:04:27.886Z,4.33
2018-12-11T01:05:27.894Z,4.30
2018-12-11T01:06:27.868Z,4.29
2018-12-11T01:07:27.848Z,4.36
2018-12-11T01:08:27.860Z,4.34
2018-12-11T01:09:27.881Z,4.30
2018-12-11T01:10:27.838Z,4.30
2018-12-11T01:11:27.808Z,4.34
2018-12-11T01:12:27.795Z,4.40
2018-12-11T01:13:27.784Z,4.36
2018-12-11T01:14:27.790Z,4.30
2018-12-11T01:15:27.789Z,4.41
2018-12-11T01:16:27.799Z,4.36
2018-12-11T01:17:27.761Z,4.32
2018-12-11T01:18:27.742Z,4.32
2018-12-11T01:19:27.769Z,4.37
2018-12-11T01:20:27.746Z,4.29
2018-12-11T01:21:27.708Z,4.24
2018-12-11T01:22:27.719Z,4.30
2018-12-11T01:23:27.680Z,4.27
2018-12-11T01:24:27.672Z,4.29
2018-12-11T01:25:27.661Z,4.29
2018-12-11T01:26:27.690Z,4.29
2018-12-11T01:27:27.635Z,4.36
2018-12-11T01:28:27.629Z,4.30
2018-12-11T01:29:27.622Z,4.37
2018-12-11T01:30:27.613Z,4.29
2018-12-11T01:31:27.601Z,4.27
2018-12-11T01:32:27.588Z,4.33
2018-12-11T01:33:27.612Z,4.26
2018-12-11T01:34:27.604Z,4.24
2018-12-11T01:35:27.570Z,4.27
2018-12-11T01:36:27.569Z,4.22
2018-12-11T01:37:27.533Z,4.30
2018-12-11T01:38:27.565Z,4.20
2018-12-11T01:39:27.509Z,4.27
2018-12-11T01:40:27.517Z,4.32
2018-12-11T01:41:27.488Z,4.29
2018-12-11T01:42:27.503Z,4.32
2018-12-11T01:43:27.482Z,4.32
2018-12-11T01:44:27.470Z,4.29
2018-12-11T01:45:27.437Z,4.27
2018-12-11T01:46:27.448Z,4.40
2018-12-11T01:47:27.444Z,4.33
2018-12-11T01:48:27.456Z,4.26
2018-12-11T01:49:27.422Z,4.29
2018-12-11T01:50:27.394Z,4.36
2018-12-11T01:51:27.379Z,4.32
2018-12-11T01:52:27.419Z,4.30
2018-12-11T01:53:27.366Z,4.30
2018-12-11T01:54:27.434Z,4.27
2018-12-11T01:55:27.339Z,4.32
2018-12-11T01:56:27.340Z,4.30
2018-12-11T01:57:27.326Z,4.29
2018-12-11T01:58:27.306Z,4.29
2018-12-11T01:59:27.301Z,4.29
2018-12-11T02:00:27.296Z,4.33
2018-12-11T02:01:27.296Z,4.33
2018-12-11T02:02:27.282Z,4.37
2018-12-11T02:03:27.265Z,4.27
2018-12-11T02:04:27.246Z,4.27
2018-12-11T02:05:27.227Z,4.36
2018-12-11T02:06:27.250Z,4.32
2018-12-11T02:07:27.220Z,4.33
2018-12-11T02:08:27.235Z,4.33
2018-12-11T02:09:27.203Z,4.29
2018-12-11T02:10:27.184Z,4.29
2018-12-11T02:11:27.231Z,4.32
2018-12-11T02:12:27.156Z,4.32
2018-12-11T02:13:27.166Z,4.36
2018-12-11T02:14:27.140Z,4.41
2018-12-11T02:15:27.133Z,4.45
2018-12-11T02:16:27.117Z,4.42
2018-12-11T02:17:27.119Z,4.47
2018-12-11T02:18:27.176Z,4.42
2018-12-11T02:19:27.119Z,4.45
2018-12-11T02:20:27.083Z,4.45
2018-12-11T02:21:27.067Z,4.37
2018-12-11T02:22:27.064Z,4.41
2018-12-11T02:23:27.064Z,4.40
2018-12-11T02:24:27.035Z,4.41
2018-12-11T02:25:27.028Z,4.42
2018-12-11T02:26:27.006Z,4.36
2018-12-11T02:27:27.009Z,4.42
2018-12-11T02:28:27.002Z,4.36
2018-12-11T02:29:27.008Z,4.41
2018-12-11T02:30:26.969Z,4.36
2018-12-11T02:31:26.964Z,4.32
2018-12-11T02:32:26.951Z,4.30
2018-12-11T02:33:26.941Z,4.32
2018-12-11T02:34:26.944Z,4.27
2018-12-11T02:35:26.914Z,4.27
2018-12-11T02:36:26.903Z,4.24
2018-12-11T02:37:26.907Z,4.26
2018-12-11T02:38:26.881Z,4.23
2018-12-11T02:39:26.915Z,4.23
2018-12-11T02:40:26.878Z,4.33
2018-12-11T02:41:26.868Z,4.24
2018-12-11T02:42:26.857Z,4.20
2018-12-11T02:43:26.826Z,4.23
2018-12-11T02:44:26.887Z,4.26
2018-12-11T02:45:26.820Z,4.24
2018-12-11T02:46:26.803Z,4.27
2018-12-11T02:47:26.782Z,4.42
2018-12-11T02:48:26.782Z,4.23
2018-12-11T02:49:26.767Z,4.27
2018-12-11T02:50:26.771Z,4.32
2018-12-11T02:51:26.754Z,4.22
2018-12-11T02:52:26.749Z,4.22
2018-12-11T02:53:26.730Z,4.22
2018-12-11T02:54:26.727Z,4.29
2018-12-11T02:55:26.697Z,4.32
2018-12-11T02:56:26.697Z,4.33
2018-12-11T02:57:26.681Z,4.27
2018-12-11T02:58:26.671Z,4.27
2018-12-11T02:59:26.660Z,4.23
2018-12-11T03:00:26.657Z,4.26
2018-12-11T03:01:26.647Z,4.27
2018-12-11T03:02:26.647Z,4.08
2018-12-11T03:03:26.625Z,4.15
2018-12-11T03:04:26.609Z,4.18
2018-12-11T03:05:26.617Z,4.23
2018-12-11T03:06:26.584Z,4.22
2018-12-11T03:07:26.571Z,4.16
2018-12-11T03:08:26.584Z,4.16
2018-12-11T03:09:26.555Z,4.20
2018-12-11T03:10:26.539Z,4.23
2018-12-11T03:11:26.529Z,4.20
2018-12-11T03:12:26.529Z,4.22
2018-12-11T03:13:26.524Z,4.18
2018-12-11T03:14:26.497Z,4.12
2018-12-11T03:15:26.530Z,4.26
2018-12-11T03:16:26.471Z,4.16
2018-12-11T03:17:26.503Z,4.20
2018-12-11T03:18:26.477Z,4.14
2018-12-11T03:19:26.447Z,4.16
2018-12-11T03:20:26.443Z,4.14
2018-12-11T03:21:26.420Z,4.14
2018-12-11T03:22:26.412Z,4.16
2018-12-11T03:23:26.417Z,4.15
2018-12-11T03:24:26.412Z,4.05
2018-12-11T03:25:26.384Z,4.02
2018-12-11T03:26:26.384Z,4.09
2018-12-11T03:27:26.395Z,3.98
2018-12-11T03:28:26.357Z,3.96
2018-12-11T03:29:26.358Z,4.06
2018-12-11T03:30:26.325Z,3.93
2018-12-11T03:31:26.335Z,3.96
2018-12-11T03:32:26.312Z,3.88
2018-12-11T03:33:26.319Z,3.97
2018-12-11T03:34:26.288Z,3.94
2018-12-11T03:35:26.296Z,4.00
2018-12-11T03:36:26.300Z,3.96
2018-12-11T03:37:26.253Z,3.97
2018-12-11T03:38:26.269Z,3.94
2018-12-11T03:39:26.225Z,3.94
2018-12-11T03:40:26.218Z,3.90
2018-12-11T03:41:26.226Z,3.94
2018-12-11T03:42:26.194Z,3.97
2018-12-11T03:43:26.206Z,3.86
2018-12-11T03:44:26.179Z,3.94
2018-12-11T03:45:26.166Z,3.98
2018-12-11T03:46:26.166Z,3.93
2018-12-11T03:47:26.159Z,3.91
2018-12-11T03:48:26.242Z,3.94
2018-12-11T03:49:26.127Z,3.96
2018-12-11T03:50:26.119Z,3.96
2018-12-11T03:51:26.132Z,3.93
2018-12-11T03:52:26.106Z,3.97
2018-12-11T03:53:26.082Z,3.94
2018-12-11T03:54:26.077Z,3.96
2018-12-11T03:55:26.070Z,3.93
2018-12-11T03:56:26.052Z,3.88
2018-12-11T03:57:26.043Z,3.84
2018-12-11T03:58:26.041Z,3.84
2018-12-11T03:59:26.016Z,3.83
2018-12-11T04:00:26.006Z,3.86
2018-12-11T04:01:26.016Z,3.87
2018-12-11T04:02:26.017Z,3.88
2018-12-11T04:03:25.976Z,3.78
2018-12-11T04:04:25.962Z,3.76
2018-12-11T04:05:25.948Z,3.86
2018-12-11T04:06:25.967Z,3.87
2018-12-11T04:07:25.947Z,3.79
2018-12-11T04:08:25.953Z,3.78
2018-12-11T04:09:25.944Z,3.79
2018-12-11T04:10:25.907Z,3.78
2018-12-11T04:11:25.881Z,3.75
2018-12-11T04:12:25.871Z,3.84
2018-12-11T04:13:25.888Z,3.73
2018-12-11T04:14:25.868Z,3.76
2018-12-11T04:15:25.851Z,3.79
2018-12-11T04:16:25.846Z,3.84
2018-12-11T04:17:25.822Z,3.73
2018-12-11T04:18:25.826Z,3.79
2018-12-11T04:19:25.809Z,3.72
2018-12-11T04:20:25.799Z,3.83
2018-12-11T04:21:25.783Z,3.84
2018-12-11T04:22:25.805Z,3.79
2018-12-11T04:23:25.773Z,3.78
2018-12-11T04:24:25.758Z,3.79
2018-12-11T04:25:25.751Z,3.79
2018-12-11T04:26:25.729Z,3.79
2018-12-11T04:27:25.724Z,3.84
2018-12-11T04:28:25.759Z,3.86
2018-12-11T04:29:25.703Z,3.79
2018-12-11T04:30:25.686Z,3.88
2018-12-11T04:31:25.664Z,3.87
2018-12-11T04:32:25.688Z,3.91
2018-12-11T04:33:25.644Z,3.90
2018-12-11T04:34:25.671Z,3.84
2018-12-11T04:35:25.697Z,3.96
2018-12-11T04:36:25.640Z,3.83
2018-12-11T04:37:25.607Z,3.93
2018-12-11T04:38:25.592Z,3.97
2018-12-11T04:39:25.597Z,3.97
2018-12-11T04:40:25.582Z,3.94
2018-12-11T04:41:25.588Z,3.96
2018-12-11T04:42:25.561Z,3.94
2018-12-11T04:43:25.564Z,3.93
2018-12-11T04:44:25.556Z,3.97
2018-12-11T04:45:25.526Z,4.04
2018-12-11T04:46:25.507Z,4.06
2018-12-11T04:47:25.511Z,4.05
2018-12-11T04:48:25.490Z,4.06
2018-12-11T04:49:25.492Z,3.98
2018-12-11T04:50:25.466Z,4.05
2018-12-11T04:51:25.449Z,4.05
2018-12-11T04:52:25.459Z,4.06
2018-12-11T04:53:25.434Z,4.06
2018-12-11T04:54:25.433Z,4.00
2018-12-11T04:55:25.410Z,4.08
2018-12-11T04:56:25.412Z,4.08
2018-12-11T04:57:25.402Z,4.09
2018-12-11T04:58:25.378Z,4.02
2018-12-11T04:59:25.371Z,4.02
2018-12-11T05:00:25.400Z,4.22
2018-12-11T05:01:25.349Z,4.09
2018-12-11T05:02:25.340Z,4.02
2018-12-11T05:03:25.331Z,4.06
2018-12-11T05:04:25.320Z,4.11
2018-12-11T05:05:25.321Z,4.16
2018-12-11T05:06:25.339Z,4.16
2018-12-11T05:07:25.289Z,4.15
2018-12-11T05:08:25.308Z,4.14
2018-12-11T05:09:25.261Z,4.08
2018-12-11T05:10:25.252Z,4.04
2018-12-11T05:11:25.244Z,4.06
2018-12-11T05:12:25.232Z,4.08
2018-12-11T05:13:25.277Z,4.06
2018-12-11T05:14:25.214Z,4.08
2018-12-11T05:15:25.202Z,4.04
2018-12-11T05:16:25.185Z,4.02
2018-12-11T05:17:25.177Z,4.09
2018-12-11T05:18:25.165Z,4.11
2018-12-11T05:19:25.216Z,4.05
2018-12-11T05:20:25.147Z,4.06
2018-12-11T05:21:25.135Z,4.05
2018-12-11T05:22:25.124Z,4.04
2018-12-11T05:23:25.119Z,4.04
2018-12-11T05:24:25.106Z,4.00
2018-12-11T05:25:25.100Z,4.09
2018-12-11T05:26:25.078Z,4.06
2018-12-11T05:27:25.063Z,4.09
2018-12-11T05:28:25.054Z,4.02
2018-12-11T05:29:25.076Z,4.09
2018-12-11T05:30:25.041Z,4.05
2018-12-11T05:31:25.034Z,4.02
2018-12-11T05:32:25.023Z,4.04
2018-12-11T05:33:25.007Z,4.04
2018-12-11T05:34:25.003Z,4.04
2018-12-11T05:35:25.003Z,4.08
2018-12-11T05:36:24.989Z,4.05
2018-12-11T05:37:24.955Z,4.06
2018-12-11T05:38:24.952Z,4.05
2018-12-11T05:39:24.950Z,3.97
2018-12-11T05:40:24.944Z,4.09
2018-12-11T05:41:24.914Z,4.12
2018-12-11T05:42:24.900Z,4.04
2018-12-11T05:43:24.906Z,4.00
2018-12-11T05:44:24.902Z,4.04
2018-12-11T05:45:24.880Z,4.11
2018-12-11T05:46:24.889Z,4.02
2018-12-11T05:47:24.844Z,4.14
2018-12-11T05:48:24.853Z,4.05
2018-12-11T05:49:24.844Z,4.14
2018-12-11T05:50:24.818Z,4.15
2018-12-11T05:51:24.808Z,4.09
2018-12-11T05:52:24.799Z,4.05
2018-12-11T05:53:24.786Z,4.09
2018-12-11T05:54:24.782Z,4.09
2018-12-11T05:55:24.769Z,4.06
2018-12-11T05:56:24.751Z,4.00
2018-12-11T05:57:24.750Z,4.09
2018-12-11T05:58:24.740Z,4.06
2018-12-11T05:59:24.715Z,4.05
2018-12-11T06:00:24.755Z,4.08
2018-12-11T06:01:24.747Z,4.05
2018-12-11T06:02:24.682Z,4.08
2018-12-11T06:03:24.694Z,4.09
2018-12-11T06:04:24.696Z,4.04
2018-12-11T06:05:24.656Z,4.02
2018-12-11T06:06:24.665Z,4.05
2018-12-11T06:07:24.641Z,4.06
2018-12-11T06:08:24.657Z,4.04
2018-12-11T06:09:24.651Z,4.06
2018-12-11T06:10:24.617Z,4.11
2018-12-11T06:11:24.595Z,4.06
2018-12-11T06:12:24.597Z,4.00
2018-12-11T06:13:24.570Z,4.06
2018-12-11T06:14:24.559Z,4.04
2018-12-11T06:15:24.550Z,4.02
2018-12-11T06:16:24.542Z,4.00
2018-12-11T06:17:24.571Z,4.05
2018-12-11T06:18:24.530Z,4.05
2018-12-11T06:19:24.501Z,4.05
2018-12-11T06:20:24.495Z,4.04
2018-12-11T06:21:24.494Z,4.04
2018-12-11T06:22:24.467Z,4.04
2018-12-11T06:23:24.478Z,4.08
2018-12-11T06:24:24.458Z,4.09
2018-12-11T06:25:24.444Z,4.04
2018-12-11T06:26:24.453Z,4.08
2018-12-11T06:27:24.447Z,4.09
2018-12-11T06:28:24.430Z,4.06
2018-12-11T06:29:24.403Z,4.11
2018-12-11T06:30:24.400Z,4.09
2018-12-11T06:31:24.371Z,4.04
2018-12-11T06:32:24.361Z,4.06
2018-12-11T06:33:24.367Z,4.02
2018-12-11T06:34:24.372Z,4.05
2018-12-11T06:35:24.337Z,4.06
2018-12-11T06:36:24.328Z,4.09
2018-12-11T06:37:24.320Z,4.12
2018-12-11T06:38:24.301Z,3.98
2018-12-11T06:39:24.302Z,4.04
2018-12-11T06:40:24.299Z,4.05
2018-12-11T06:41:24.280Z,4.04
2018-12-11T06:42:24.282Z,4.08
2018-12-11T06:43:24.284Z,3.98
2018-12-11T06:44:24.255Z,3.97
2018-12-11T06:45:24.249Z,3.94
2018-12-11T06:46:24.211Z,3.98
2018-12-11T06:47:24.218Z,4.02
2018-12-11T06:48:24.194Z,4.02
2018-12-11T06:49:24.189Z,4.04
2018-12-11T06:50:24.207Z,3.96
2018-12-11T06:51:24.167Z,4.00
2018-12-11T06:52:24.168Z,3.97
2018-12-11T06:53:24.160Z,3.93
2018-12-11T06:54:24.183Z,4.04
2018-12-11T06:55:24.118Z,3.93
2018-12-11T06:56:24.116Z,3.98
2018-12-11T06:57:24.094Z,3.94
2018-12-11T06:58:24.132Z,3.98
2018-12-11T06:59:24.076Z,4.02
2018-12-11T07:00:24.074Z,3.90
2018-12-11T07:01:24.052Z,3.98
2018-12-11T07:02:24.048Z,3.98
2018-12-11T07:03:24.056Z,3.98
2018-12-11T07:04:24.022Z,3.98
2018-12-11T07:05:24.024Z,3.91
2018-12-11T07:06:24.010Z,3.86
2018-12-11T07:07:24.053Z,3.97
2018-12-11T07:08:23.979Z,3.94
2018-12-11T07:09:23.963Z,3.94
2018-12-11T07:10:23.970Z,3.94
2018-12-11T07:11:23.937Z,3.91
2018-12-11T07:12:23.973Z,3.97
2018-12-11T07:13:23.944Z,3.94
2018-12-11T07:14:23.917Z,3.91
2018-12-11T07:15:23.910Z,3.91
2018-12-11T07:16:23.891Z,3.80
2018-12-11T07:17:23.895Z,3.97
2018-12-11T07:18:26.033Z,3.78
2018-12-11T07:19:23.859Z,3.83
2018-12-11T07:20:23.872Z,3.86
2018-12-11T07:21:23.848Z,3.86
2018-12-11T07:22:23.828Z,3.76
2018-12-11T07:23:23.816Z,3.87
2018-12-11T07:24:23.804Z,3.84
2018-12-11T07:25:23.803Z,3.78
2018-12-11T07:26:23.822Z,3.76
2018-12-11T07:27:24.139Z,3.79
2018-12-11T07:28:23.757Z,3.76
2018-12-11T07:29:23.741Z,3.78
2018-12-11T07:30:23.731Z,3.80
2018-12-11T07:31:23.776Z,3.78
2018-12-11T07:32:23.724Z,3.78
2018-12-11T07:33:23.715Z,3.78
2018-12-11T07:34:23.700Z,3.79
2018-12-11T07:35:23.687Z,3.78
2018-12-11T07:36:23.704Z,3.80
2018-12-11T07:37:23.659Z,3.83
2018-12-11T07:38:23.671Z,3.75
2018-12-11T07:39:23.678Z,3.88
2018-12-11T07:40:23.649Z,3.84
2018-12-11T07:41:23.635Z,3.84
2018-12-11T07:42:23.621Z,3.84
2018-12-11T07:43:23.611Z,3.80
2018-12-11T07:44:23.587Z,3.93
2018-12-11T07:45:23.595Z,3.88
2018-12-11T07:46:23.632Z,3.90
2018-12-11T07:47:23.599Z,3.91
2018-12-11T07:48:23.542Z,3.91
2018-12-11T07:49:23.549Z,3.91
2018-12-11T07:50:23.513Z,3.96
2018-12-11T07:51:23.567Z,3.96
2018-12-11T07:52:23.499Z,3.96
2018-12-11T07:53:23.496Z,3.98
2018-12-11T07:54:23.486Z,4.04
2018-12-11T07:55:23.471Z,4.05
2018-12-11T07:56:23.462Z,4.05
2018-12-11T07:57:23.460Z,4.06
2018-12-11T07:58:23.469Z,4.08
2018-12-11T07:59:23.479Z,4.08
2018-12-11T08:00:23.427Z,4.09
2018-12-11T08:01:23.409Z,4.05
2018-12-11T08:02:23.384Z,4.09
2018-12-11T08:03:23.378Z,4.05
2018-12-11T08:04:23.394Z,4.09
2018-12-11T08:05:23.374Z,4.09
2018-12-11T08:06:23.390Z,4.00
2018-12-11T08:07:23.345Z,4.11
2018-12-11T08:08:23.353Z,4.08
2018-12-11T08:09:23.327Z,4.04
2018-12-11T08:10:23.334Z,4.04
2018-12-11T08:11:23.325Z,4.05
2018-12-11T08:12:23.346Z,4.06
2018-12-11T08:13:23.277Z,4.05
2018-12-11T08:14:23.261Z,4.09
2018-12-11T08:15:23.261Z,4.06
2018-12-11T08:16:23.253Z,4.00
2018-12-11T08:17:23.236Z,4.08
2018-12-11T08:18:23.227Z,4.00
2018-12-11T08:19:23.214Z,4.09
2018-12-11T08:20:23.195Z,3.98
2018-12-11T08:21:23.233Z,4.05
2018-12-11T08:22:23.177Z,4.12
2018-12-11T08:23:23.162Z,4.05
2018-12-11T08:24:23.167Z,4.12
2018-12-11T08:25:23.164Z,4.05
2018-12-11T08:26:23.166Z,4.09
2018-12-11T08:27:23.121Z,4.05
2018-12-11T08:28:23.110Z,4.06
2018-12-11T08:29:23.139Z,4.08
2018-12-11T08:30:23.124Z,4.08
2018-12-11T08:31:23.091Z,4.09
2018-12-11T08:32:23.066Z,4.09
2018-12-11T08:33:23.060Z,4.15
2018-12-11T08:34:23.071Z,4.15
2018-12-11T08:35:23.053Z,4.23
2018-12-11T08:36:23.034Z,4.22
2018-12-11T08:37:23.028Z,4.14
2018-12-11T08:38:23.007Z,4.26
2018-12-11T08:39:23.027Z,4.06
2018-12-11T08:40:22.992Z,4.18
2018-12-11T08:41:22.966Z,4.22
2018-12-11T08:42:22.957Z,4.27
2018-12-11T08:43:22.957Z,4.26
2018-12-11T08:44:22.944Z,4.18
2018-12-11T08:45:22.966Z,4.32
2018-12-11T08:46:22.921Z,4.23
2018-12-11T08:47:22.920Z,4.32
2018-12-11T08:48:22.909Z,4.36
2018-12-11T08:49:22.890Z,4.75
2018-12-11T08:50:22.920Z,5.12
2018-12-11T08:51:22.863Z,4.92
2018-12-11T08:52:22.871Z,4.88
2018-12-11T08:53:22.837Z,4.73
2018-12-11T08:54:22.839Z,4.63
2018-12-11T08:55:22.829Z,4.59
2018-12-11T08:56:22.811Z,4.62
2018-12-11T08:57:22.804Z,4.62
2018-12-11T08:58:22.800Z,4.59
2018-12-11T08:59:22.810Z,4.60
2018-12-11T09:00:22.816Z,4.60
2018-12-11T09:01:22.757Z,4.67
2018-12-11T09:02:22.749Z,4.72
2018-12-11T09:03:22.754Z,4.63
2018-12-11T09:04:22.737Z,4.67
2018-12-11T09:05:22.708Z,4.67
2018-12-11T09:06:22.693Z,4.65
2018-12-11T09:07:22.691Z,4.65
2018-12-11T09:08:22.700Z,4.70
2018-12-11T09:09:22.687Z,4.69
2018-12-11T09:10:22.691Z,4.72
2018-12-11T09:11:22.649Z,4.66
2018-12-11T09:12:22.633Z,4.73
2018-12-11T09:13:22.620Z,4.70
2018-12-11T09:14:22.616Z,4.69
2018-12-11T09:15:22.616Z,4.70
2018-12-11T09:16:22.593Z,4.63
2018-12-11T09:17:22.589Z,4.75
2018-12-11T09:18:22.567Z,4.72
2018-12-11T09:19:22.555Z,4.77
2018-12-11T09:20:22.548Z,4.72
2018-12-11T09:21:22.585Z,4.70
2018-12-11T09:22:22.536Z,4.67
2018-12-11T09:23:22.513Z,4.72
2018-12-11T09:24:22.500Z,4.73
2018-12-11T09:25:22.501Z,4.69
2018-12-11T09:26:22.479Z,4.70
2018-12-11T09:27:22.482Z,4.70
2018-12-11T09:28:22.506Z,4.73
2018-12-11T09:29:22.460Z,4.84
2018-12-11T09:30:22.442Z,4.88
2018-12-11T09:31:22.465Z,4.88
2018-12-11T09:32:22.415Z,4.82
2018-12-11T09:33:22.403Z,4.89
2018-12-11T09:34:22.428Z,4.99
2018-12-11T09:35:22.387Z,5.00
2018-12-11T09:36:22.373Z,5.02
2018-12-11T09:37:22.382Z,5.10
2018-12-11T09:38:22.359Z,5.22
2018-12-11T09:39:22.349Z,5.42
2018-12-11T09:40:24.661Z,5.63
2018-12-11T09:41:22.323Z,5.85
2018-12-11T09:42:27.759Z,5.94
2018-12-11T09:43:23.313Z,6.11
2018-12-11T09:44:22.327Z,6.12
2018-12-11T09:45:22.285Z,6.04
2018-12-11T09:46:22.261Z,6.06
2018-12-11T09:47:22.262Z,6.04
2018-12-11T09:48:22.277Z,6.01
2018-12-11T09:49:22.237Z,5.94
2018-12-11T09:50:22.230Z,6.06
2018-12-11T09:51:22.218Z,5.94
2018-12-11T09:52:22.199Z,5.83
2018-12-11T09:53:22.196Z,5.72
2018-12-11T09:54:22.204Z,5.60
2018-12-11T09:55:22.182Z,5.58
2018-12-11T09:56:22.196Z,5.65
2018-12-11T09:57:22.137Z,5.63
2018-12-11T09:58:22.143Z,5.74
2018-12-11T09:59:23.548Z,5.72
2018-12-11T10:00:25.743Z,5.65
2018-12-11T10:01:23.102Z,5.65
2018-12-11T10:02:22.094Z,5.65
2018-12-11T10:03:22.101Z,5.79
2018-12-11T10:04:22.083Z,5.97
2018-12-11T10:05:22.068Z,5.96
2018-12-11T10:06:22.048Z,6.11
2018-12-11T10:07:22.071Z,5.94
2018-12-11T10:08:22.025Z,5.94
2018-12-11T10:09:22.012Z,5.86
2018-12-11T10:10:21.997Z,5.91
2018-12-11T10:11:21.988Z,5.97
2018-12-11T10:12:22.022Z,6.11
2018-12-11T10:13:22.002Z,6.19
2018-12-11T10:14:21.958Z,6.33
2018-12-11T10:15:21.953Z,6.54
2018-12-11T10:16:21.936Z,6.70
2018-12-11T10:17:21.922Z,6.97
2018-12-11T10:18:21.930Z,7.12
2018-12-11T10:19:21.902Z,7.25
2018-12-11T10:20:21.938Z,7.52
2018-12-11T10:21:21.916Z,7.82
2018-12-11T10:22:21.879Z,7.85
2018-12-11T10:23:21.870Z,7.72
2018-12-11T10:24:21.860Z,7.75
2018-12-11T10:25:21.839Z,7.72
2018-12-11T10:26:21.827Z,7.49
2018-12-11T10:27:21.828Z,7.39
2018-12-11T10:28:21.817Z,7.52
2018-12-11T10:29:21.802Z,7.35
2018-12-11T10:30:21.818Z,7.21
2018-12-11T10:31:21.775Z,6.91
2018-12-11T10:32:21.780Z,6.91
2018-12-11T10:33:21.751Z,6.67
2018-12-11T10:34:21.753Z,6.67
2018-12-11T10:35:21.738Z,6.48
2018-12-11T10:36:21.731Z,6.36
2018-12-11T10:37:21.749Z,6.28
2018-12-11T10:38:21.712Z,6.33
2018-12-11T10:39:21.694Z,6.31
2018-12-11T10:40:21.675Z,6.21
2018-12-11T10:41:21.682Z,6.19
2018-12-11T10:42:21.690Z,6.28
2018-12-11T10:43:21.645Z,6.28
2018-12-11T10:44:21.647Z,6.30
2018-12-11T10:45:21.621Z,6.21
2018-12-11T10:46:21.618Z,6.33
2018-12-11T10:47:22.090Z,6.27
2018-12-11T10:48:21.585Z,6.19
2018-12-11T10:49:21.585Z,5.97
2018-12-11T10:50:21.562Z,5.90
2018-12-11T10:51:21.579Z,5.89
2018-12-11T10:52:21.574Z,5.83
2018-12-11T10:53:21.585Z,5.85
2018-12-11T10:54:21.519Z,5.79
2018-12-11T10:55:21.506Z,5.78
2018-12-11T10:56:21.527Z,5.86
2018-12-11T10:57:21.536Z,5.75
2018-12-11T10:58:21.489Z,5.64
2018-12-11T10:59:21.490Z,5.58
2018-12-11T11:00:21.451Z,5.58
2018-12-11T11:01:21.445Z,5.61
2018-12-11T11:02:21.454Z,5.61
2018-12-11T11:03:21.419Z,5.65
2018-12-11T11:04:21.501Z,5.63
2018-12-11T11:05:21.409Z,5.57
2018-12-11T11:06:22.165Z,5.48
2018-12-11T11:07:21.385Z,5.57
2018-12-11T11:08:21.377Z,5.58
2018-12-11T11:09:21.356Z,5.57
2018-12-11T11:10:21.354Z,5.58
2018-12-11T11:11:21.340Z,5.63
2018-12-11T11:12:21.328Z,5.72
2018-12-11T11:13:21.335Z,5.72
2018-12-11T11:14:21.302Z,5.68
2018-12-11T11:15:21.307Z,5.64
2018-12-11T11:16:21.329Z,5.71
2018-12-11T11:17:21.274Z,5.64
2018-12-11T11:18:21.274Z,5.71
2018-12-11T11:19:21.266Z,5.64
2018-12-11T11:20:21.237Z,5.71
2018-12-11T11:21:21.250Z,5.64
2018-12-11T11:22:21.219Z,5.72
2018-12-11T11:23:21.208Z,5.78
2018-12-11T11:24:21.199Z,5.72
2018-12-11T11:25:21.186Z,5.68
2018-12-11T11:26:21.216Z,5.61
2018-12-11T11:27:21.207Z,5.60
2018-12-11T11:28:21.176Z,5.54
2018-12-11T11:29:21.186Z,5.58
2018-12-11T11:30:21.135Z,5.49
2018-12-11T11:31:21.140Z,5.39
2018-12-11T11:32:21.104Z,5.38
2018-12-11T11:33:21.097Z,5.45
2018-12-11T11:34:21.085Z,5.51
2018-12-11T11:35:21.078Z,5.36
2018-12-11T11:36:21.092Z,5.35
2018-12-11T11:37:21.059Z,5.35
2018-12-11T11:38:21.044Z,5.30
2018-12-11T11:39:21.080Z,5.31
2018-12-11T11:40:21.020Z,5.33
2018-12-11T11:41:21.025Z,5.33
2018-12-11T11:42:21.011Z,5.38
2018-12-11T11:43:21.025Z,5.28
2018-12-11T11:44:20.975Z,5.28
2018-12-11T11:45:20.982Z,5.33
2018-12-11T11:46:20.990Z,5.35
2018-12-11T11:47:20.944Z,5.27
2018-12-11T11:48:20.953Z,5.39
2018-12-11T11:49:20.929Z,5.35
2018-12-11T11:50:20.956Z,5.30
2018-12-11T11:51:20.944Z,5.30
2018-12-11T11:52:20.917Z,5.27
2018-12-11T11:53:20.883Z,5.39
2018-12-11T11:54:20.875Z,5.31
2018-12-11T11:55:20.862Z,5.27
2018-12-11T11:56:20.881Z,5.38
2018-12-11T11:57:20.860Z,5.40
2018-12-11T11:58:20.837Z,5.43
2018-12-11T11:59:20.822Z,5.33
2018-12-11T12:00:20.814Z,5.27
2018-12-11T12:01:20.804Z,5.39
2018-12-11T12:02:20.820Z,5.45
2018-12-11T12:03:20.789Z,5.45
2018-12-11T12:04:20.791Z,5.42
2018-12-11T12:05:20.755Z,5.39
2018-12-11T12:06:20.751Z,5.39
2018-12-11T12:07:20.750Z,5.48
2018-12-11T12:08:20.733Z,5.54
2018-12-11T12:09:20.745Z,5.57
2018-12-11T12:10:20.714Z,5.48
2018-12-11T12:11:20.710Z,5.54
2018-12-11T12:12:20.747Z,5.53
2018-12-11T12:13:20.716Z,5.67
2018-12-11T12:14:20.663Z,5.51
2018-12-11T12:15:20.693Z,5.64
2018-12-11T12:16:20.633Z,5.63
2018-12-11T12:17:20.634Z,5.67
2018-12-11T12:18:20.629Z,5.68
2018-12-11T12:19:20.614Z,5.71
2018-12-11T12:20:20.606Z,5.71
2018-12-11T12:21:20.586Z,5.75
2018-12-11T12:22:21.407Z,5.79
2018-12-11T12:23:20.578Z,5.89
2018-12-11T12:24:20.553Z,5.82
2018-12-11T12:25:20.586Z,5.86
2018-12-11T12:26:20.537Z,5.85
2018-12-11T12:27:20.524Z,5.81
2018-12-11T12:28:20.539Z,5.89
2018-12-11T12:29:20.503Z,5.74
2018-12-11T12:30:20.508Z,5.85
2018-12-11T12:31:20.477Z,5.85
2018-12-11T12:32:20.478Z,5.75
2018-12-11T12:33:20.464Z,5.74
2018-12-11T12:34:20.471Z,5.85
2018-12-11T12:35:20.459Z,5.85
2018-12-11T12:36:20.449Z,5.89
2018-12-11T12:37:20.424Z,5.83
2018-12-11T12:38:20.447Z,5.89
2018-12-11T12:39:20.391Z,5.86
2018-12-11T12:40:20.382Z,5.89
2018-12-11T12:41:20.376Z,5.79
2018-12-11T12:42:20.371Z,5.79
2018-12-11T12:43:20.351Z,5.72
2018-12-11T12:44:20.373Z,5.76
2018-12-11T12:45:20.342Z,5.78
2018-12-11T12:46:20.326Z,5.61
2018-12-11T12:47:20.307Z,5.65
2018-12-11T12:48:20.323Z,5.68
2018-12-11T12:49:20.291Z,5.74
2018-12-11T12:50:20.285Z,5.72
2018-12-11T12:51:20.257Z,5.79
2018-12-11T12:52:20.264Z,5.83
2018-12-11T12:53:20.241Z,5.89
2018-12-11T12:54:20.235Z,5.96
2018-12-11T12:55:20.243Z,6.06
2018-12-11T12:56:20.209Z,6.14
2018-12-11T12:57:20.199Z,6.08
2018-12-11T12:58:20.202Z,6.22
2018-12-11T12:59:20.173Z,6.25
2018-12-11T13:00:20.167Z,6.19
2018-12-11T13:01:20.202Z,6.30
2018-12-11T13:02:20.139Z,6.28
2018-12-11T13:03:20.130Z,6.15
2018-12-11T13:04:20.131Z,6.14
2018-12-11T13:05:20.117Z,6.21
2018-12-11T13:06:20.119Z,6.15
2018-12-11T13:07:20.096Z,6.14
2018-12-11T13:08:20.087Z,6.22
2018-12-11T13:09:20.088Z,6.30
2018-12-11T13:10:20.064Z,6.25
2018-12-11T13:11:20.065Z,6.36
2018-12-11T13:12:20.053Z,6.27
2018-12-11T13:13:20.034Z,6.28
2018-12-11T13:14:20.018Z,6.22
2018-12-11T13:15:20.016Z,6.33
2018-12-11T13:16:19.994Z,6.22
2018-12-11T13:17:19.980Z,6.27
2018-12-11T13:18:19.973Z,6.27